createdAt,value
2023-08-15T00:00:57.953Z,62.18
2023-08-15T00:01:59.735Z,62.65
2023-08-15T00:03:01.524Z,62.57
2023-08-15T00:04:03.683Z,62.50
2023-08-15T00:05:05.825Z,62.59
2023-08-15T00:06:07.784Z,62.61
2023-08-15T00:07:09.628Z,62.59
2023-08-15T00:08:11.348Z,62.42
2023-08-15T00:09:13.136Z,62.52
2023-08-15T00:10:14.939Z,62.63
2023-08-15T00:11:16.797Z,62.53
2023-08-15T00:12:18.618Z,62.47
2023-08-15T00:13:20.485Z,62.81
2023-08-15T00:14:22.825Z,62.53
2023-08-15T00:15:24.590Z,62.61
2023-08-15T00:16:26.457Z,62.41
2023-08-15T00:17:28.200Z,63.24
2023-08-15T00:18:29.979Z,62.81
2023-08-15T00:19:31.792Z,62.94
2023-08-15T00:20:33.680Z,63.31
2023-08-15T00:21:35.723Z,63.10
2023-08-15T00:22:37.626Z,62.79
2023-08-15T00:23:39.622Z,63.04
2023-08-15T00:24:41.681Z,63.00
2023-08-15T00:25:44.034Z,63.04
2023-08-15T00:26:45.715Z,63.24
2023-08-15T00:27:47.744Z,63.21
2023-08-15T00:28:49.641Z,62.79
2023-08-15T00:29:51.645Z,62.75
2023-08-15T00:30:53.500Z,62.69
2023-08-15T00:31:55.282Z,62.94
2023-08-15T00:32:57.577Z,62.87
2023-08-15T00:33:59.318Z,62.82
2023-08-15T00:35:01.143Z,62.93
2023-08-15T00:36:04.571Z,63.54
2023-08-15T00:37:06.397Z,63.48
2023-08-15T00:38:08.215Z,63.10
2023-08-15T00:39:10.286Z,63.45
2023-08-15T00:40:12.306Z,63.40
2023-08-15T00:41:14.416Z,63.40
2023-08-15T00:43:20.443Z,63.01
2023-08-15T00:44:22.236Z,63.28
2023-08-15T00:45:24.024Z,63.69
2023-08-15T00:46:29.554Z,63.08
2023-08-15T00:48:34.252Z,63.51
2023-08-15T00:49:36.036Z,63.35
2023-08-15T00:51:40.228Z,63.50
2023-08-15T00:52:42.322Z,63.34
2023-08-15T00:53:44.423Z,62.98
2023-08-15T00:54:50.595Z,63.33
2023-08-15T00:55:53.408Z,63.47
2023-08-15T00:56:55.305Z,63.65
2023-08-15T00:57:57.211Z,63.53
2023-08-15T00:58:59.014Z,63.79
2023-08-15T01:00:00.896Z,63.68
2023-08-15T01:01:03.163Z,64.08
2023-08-15T01:02:05.115Z,63.77
2023-08-15T01:03:07.384Z,63.88
2023-08-15T01:04:09.702Z,64.01
2023-08-15T01:05:12.374Z,63.68
2023-08-15T01:06:14.219Z,64.10
2023-08-15T01:07:19.713Z,63.91
2023-08-15T01:08:21.772Z,63.95
2023-08-15T01:09:23.521Z,63.96
2023-08-15T01:10:25.399Z,63.74
2023-08-15T01:11:33.698Z,64.16
2023-08-15T01:12:54.407Z,64.07
2023-08-15T01:14:05.964Z,64.28
2023-08-15T01:15:10.487Z,64.18
2023-08-15T01:16:15.064Z,64.38
2023-08-15T01:17:19.513Z,64.17
2023-08-15T01:18:28.303Z,64.01
2023-08-15T01:19:35.226Z,64.29
2023-08-15T01:20:38.536Z,64.40
2023-08-15T01:21:42.929Z,64.03
2023-08-15T01:22:45.346Z,63.91
2023-08-15T01:23:48.278Z,63.83
2023-08-15T01:24:50.131Z,64.25
2023-08-15T01:25:55.013Z,63.92
2023-08-15T01:26:56.783Z,64.27
2023-08-15T01:27:58.627Z,64.07
2023-08-15T01:29:00.365Z,64.36
2023-08-15T01:30:02.253Z,64.56
2023-08-15T01:31:13.738Z,64.78
2023-08-15T01:32:30.304Z,64.17
2023-08-15T01:33:40.914Z,64.17
2023-08-15T01:34:47.787Z,64.13
2023-08-15T01:35:51.189Z,64.30
2023-08-15T01:36:55.815Z,64.54
2023-08-15T01:38:02.970Z,64.52
2023-08-15T01:39:06.296Z,64.31
2023-08-15T01:40:11.037Z,64.60
2023-08-15T01:41:17.659Z,64.89
2023-08-15T01:42:22.087Z,64.59
2023-08-15T01:43:24.178Z,64.90
2023-08-15T01:44:26.746Z,64.57
2023-08-15T01:45:29.544Z,64.74
2023-08-15T01:46:31.475Z,64.55
2023-08-15T01:47:36.136Z,64.26
2023-08-15T01:48:43.983Z,64.49
2023-08-15T01:49:45.713Z,64.29
2023-08-15T01:50:47.458Z,64.71
2023-08-15T01:51:49.207Z,64.78
2023-08-15T01:52:51.248Z,64.48
2023-08-15T01:53:53.123Z,64.92
2023-08-15T01:54:54.913Z,64.65
2023-08-15T01:55:56.688Z,64.64
2023-08-15T01:56:58.578Z,64.84
2023-08-15T01:58:00.370Z,65.08
2023-08-15T01:59:02.127Z,64.97
2023-08-15T02:00:04.524Z,64.71
2023-08-15T02:01:06.471Z,65.06
2023-08-15T02:02:08.287Z,64.83
2023-08-15T02:03:10.213Z,65.08
2023-08-15T02:04:11.885Z,65.81
2023-08-15T02:05:14.728Z,65.53
2023-08-15T02:06:16.564Z,65.41
2023-08-15T02:07:18.698Z,65.09
2023-08-15T02:08:22.084Z,65.49
2023-08-15T02:09:23.909Z,65.41
2023-08-15T02:10:26.220Z,65.42
2023-08-15T02:11:28.079Z,65.68
2023-08-15T02:12:29.758Z,65.16
2023-08-15T02:13:35.115Z,65.23
2023-08-15T02:14:37.095Z,65.48
2023-08-15T02:15:39.004Z,65.57
2023-08-15T02:16:40.998Z,65.23
2023-08-15T02:17:43.188Z,65.81
2023-08-15T02:18:45.177Z,65.77
2023-08-15T02:19:47.121Z,65.69
2023-08-15T02:20:48.850Z,65.57
2023-08-15T02:21:50.624Z,65.76
2023-08-15T02:22:52.653Z,66.16
2023-08-15T02:23:54.427Z,66.00
2023-08-15T02:24:56.144Z,65.72
2023-08-15T02:25:58.010Z,66.15
2023-08-15T02:26:59.837Z,66.31
2023-08-15T02:28:01.704Z,66.30
2023-08-15T02:29:04.945Z,66.27
2023-08-15T02:30:07.175Z,66.25
2023-08-15T02:31:11.666Z,66.01
2023-08-15T02:32:13.614Z,65.83
2023-08-15T02:33:15.288Z,65.90
2023-08-15T02:34:18.023Z,65.57
2023-08-15T02:35:19.869Z,65.80
2023-08-15T02:36:22.758Z,65.82
2023-08-15T02:37:24.489Z,66.05
2023-08-15T02:38:26.399Z,65.81
2023-08-15T02:39:28.178Z,65.87
2023-08-15T02:40:29.896Z,66.05
2023-08-15T02:41:31.606Z,66.31
2023-08-15T02:42:34.288Z,66.35
2023-08-15T02:43:36.198Z,66.23
2023-08-15T02:44:38.139Z,66.32
2023-08-15T02:45:39.958Z,66.26
2023-08-15T02:46:41.853Z,66.09
2023-08-15T02:47:43.744Z,66.19
2023-08-15T02:48:45.715Z,65.83
2023-08-15T02:49:47.502Z,66.05
2023-08-15T02:50:49.420Z,65.99
2023-08-15T02:51:51.212Z,66.02
2023-08-15T02:52:53.021Z,66.00
2023-08-15T02:53:54.753Z,65.83
2023-08-15T02:54:56.547Z,65.65
2023-08-15T02:55:58.311Z,65.94
2023-08-15T02:57:00.048Z,65.98
2023-08-15T02:58:02.073Z,66.27
2023-08-15T02:59:03.893Z,66.30
2023-08-15T03:00:06.268Z,66.34
2023-08-15T03:01:08.666Z,66.37
2023-08-15T03:02:11.363Z,66.21
2023-08-15T03:03:13.240Z,66.40
2023-08-15T03:04:15.033Z,66.01
2023-08-15T03:05:16.722Z,66.14
2023-08-15T03:06:19.242Z,65.82
2023-08-15T03:07:21.224Z,66.20
2023-08-15T03:08:23.270Z,66.18
2023-08-15T03:09:25.097Z,66.24
2023-08-15T03:10:26.981Z,66.47
2023-08-15T03:11:30.818Z,66.18
2023-08-15T03:12:32.740Z,66.24
2023-08-15T03:13:34.742Z,66.17
2023-08-15T03:14:36.802Z,66.02
2023-08-15T03:15:39.198Z,66.14
2023-08-15T03:16:41.302Z,66.18
2023-08-15T03:17:44.191Z,66.13
2023-08-15T03:18:46.179Z,65.98
2023-08-15T03:19:48.162Z,66.18
2023-08-15T03:21:00.690Z,66.16
2023-08-15T03:22:02.698Z,66.42
2023-08-15T03:23:04.847Z,66.51
2023-08-15T03:24:07.159Z,66.76
2023-08-15T03:25:09.584Z,66.53
2023-08-15T03:26:11.507Z,66.44
2023-08-15T03:27:13.567Z,66.24
2023-08-15T03:28:15.475Z,66.12
2023-08-15T03:29:17.425Z,66.30
2023-08-15T03:30:19.500Z,66.05
2023-08-15T03:31:22.705Z,66.19
2023-08-15T03:32:24.670Z,66.32
2023-08-15T03:33:27.261Z,66.43
2023-08-15T03:34:29.301Z,66.38
2023-08-15T03:35:31.574Z,66.52
2023-08-15T03:36:33.324Z,66.61
2023-08-15T03:37:36.840Z,66.90
2023-08-15T03:38:38.816Z,66.73
2023-08-15T03:39:40.756Z,66.77
2023-08-15T03:40:43.344Z,66.81
2023-08-15T03:41:46.574Z,66.91
2023-08-15T03:42:48.561Z,67.11
2023-08-15T03:43:50.619Z,67.10
2023-08-15T03:44:52.628Z,66.90
2023-08-15T03:45:54.621Z,66.93
2023-08-15T03:46:56.649Z,66.68
2023-08-15T03:47:58.627Z,67.06
2023-08-15T03:49:00.654Z,66.73
2023-08-15T03:50:03.271Z,67.34
2023-08-15T03:51:05.565Z,66.94
2023-08-15T03:52:07.525Z,67.16
2023-08-15T03:53:10.950Z,67.10
2023-08-15T03:54:13.168Z,67.35
2023-08-15T03:55:15.226Z,67.62
2023-08-15T03:56:17.114Z,67.42
2023-08-15T03:57:19.392Z,67.51
2023-08-15T03:58:22.880Z,67.28
2023-08-15T03:59:24.922Z,67.08
2023-08-15T04:00:26.965Z,67.10
2023-08-15T04:01:28.982Z,66.67
2023-08-15T04:02:30.957Z,66.92
2023-08-15T04:03:33.015Z,67.10
2023-08-15T04:04:34.900Z,67.34
2023-08-15T04:05:36.798Z,67.52
2023-08-15T04:06:38.674Z,67.08
2023-08-15T04:07:40.952Z,67.38
2023-08-15T04:08:42.743Z,67.48
2023-08-15T04:09:44.845Z,67.75
2023-08-15T04:10:47.313Z,67.47
2023-08-15T04:11:49.086Z,67.58
2023-08-15T04:12:50.847Z,67.53
2023-08-15T04:13:52.555Z,67.27
2023-08-15T04:14:54.481Z,67.53
2023-08-15T04:15:56.598Z,67.28
2023-08-15T04:16:58.470Z,67.32
2023-08-15T04:18:00.213Z,67.27
2023-08-15T04:19:02.269Z,67.13
2023-08-15T04:20:08.628Z,67.24
2023-08-15T04:21:12.647Z,67.25
2023-08-15T04:22:14.609Z,67.22
2023-08-15T04:23:16.309Z,67.23
2023-08-15T04:24:20.490Z,67.69
2023-08-15T04:25:22.290Z,67.44
2023-08-15T04:26:24.171Z,67.45
2023-08-15T04:27:25.812Z,67.65
2023-08-15T04:28:27.823Z,67.37
2023-08-15T04:29:29.529Z,67.33
2023-08-15T04:30:31.946Z,67.48
2023-08-15T04:31:33.867Z,67.46
2023-08-15T04:32:35.795Z,67.61
2023-08-15T04:33:37.684Z,67.70
2023-08-15T04:34:39.405Z,67.53
2023-08-15T04:35:41.181Z,67.68
2023-08-15T04:36:46.145Z,67.60
2023-08-15T04:37:47.941Z,68.07
2023-08-15T04:38:49.692Z,68.22
2023-08-15T04:39:52.303Z,68.26
2023-08-15T04:40:55.978Z,68.13
2023-08-15T04:41:59.124Z,68.09
2023-08-15T04:43:01.535Z,68.71
2023-08-15T04:44:03.792Z,68.25
2023-08-15T04:45:05.788Z,68.22
2023-08-15T04:46:07.584Z,68.43
2023-08-15T04:47:09.373Z,68.38
2023-08-15T04:48:11.686Z,68.31
2023-08-15T04:49:13.797Z,68.34
2023-08-15T04:50:15.938Z,68.21
2023-08-15T04:51:17.827Z,68.22
2023-08-15T04:52:19.627Z,68.24
2023-08-15T04:53:21.385Z,68.44
2023-08-15T04:54:23.031Z,68.71
2023-08-15T04:55:24.842Z,68.65
2023-08-15T04:56:26.697Z,68.46
2023-08-15T04:57:28.533Z,68.43
2023-08-15T04:58:30.713Z,68.53
2023-08-15T04:59:32.488Z,68.43
2023-08-15T05:00:35.523Z,68.43
2023-08-15T05:01:37.653Z,68.16
2023-08-15T05:02:40.451Z,68.25
2023-08-15T05:03:42.306Z,68.47
2023-08-15T05:04:44.003Z,68.65
2023-08-15T05:05:45.812Z,68.82
2023-08-15T05:06:47.630Z,68.60
2023-08-15T05:07:49.524Z,68.76
2023-08-15T05:08:51.307Z,68.64
2023-08-15T05:09:53.108Z,68.79
2023-08-15T05:10:55.712Z,68.94
2023-08-15T05:11:57.913Z,68.69
2023-08-15T05:13:00.603Z,68.81
2023-08-15T05:14:02.344Z,68.75
2023-08-15T05:15:04.438Z,68.62
2023-08-15T05:16:06.334Z,68.69
2023-08-15T05:17:08.119Z,68.95
2023-08-15T05:18:11.397Z,68.87
2023-08-15T05:19:13.181Z,68.70
2023-08-15T05:20:16.109Z,68.99
2023-08-15T05:21:17.845Z,69.28
2023-08-15T05:22:20.852Z,69.12
2023-08-15T05:23:22.787Z,68.98
2023-08-15T05:24:26.596Z,69.41
2023-08-15T05:25:28.441Z,69.26
2023-08-15T05:26:30.144Z,69.05
2023-08-15T05:27:31.894Z,69.14
2023-08-15T05:28:34.026Z,69.19
2023-08-15T05:29:35.759Z,69.13
2023-08-15T05:30:38.064Z,69.11
2023-08-15T05:31:39.841Z,69.29
2023-08-15T05:32:41.730Z,69.32
2023-08-15T05:33:43.568Z,69.04
2023-08-15T05:34:45.357Z,68.82
2023-08-15T05:35:47.144Z,69.17
2023-08-15T05:36:48.955Z,68.97
2023-08-15T05:37:50.792Z,69.00
2023-08-15T05:38:52.675Z,69.00
2023-08-15T05:39:54.601Z,69.57
2023-08-15T05:40:56.400Z,69.55
2023-08-15T05:41:58.181Z,69.46
2023-08-15T05:43:00.660Z,69.47
2023-08-15T05:44:02.780Z,69.38
2023-08-15T05:45:05.088Z,69.64
2023-08-15T05:46:06.942Z,69.45
2023-08-15T05:47:09.030Z,69.63
2023-08-15T05:48:12.387Z,69.36
2023-08-15T05:49:14.663Z,69.24
2023-08-15T05:50:16.653Z,69.29
2023-08-15T05:51:19.980Z,69.45
2023-08-15T05:52:21.909Z,69.42
2023-08-15T05:53:23.659Z,69.24
2023-08-15T05:54:25.457Z,69.56
2023-08-15T05:55:27.344Z,69.52
2023-08-15T05:56:29.131Z,69.34
2023-08-15T05:57:30.993Z,69.25
2023-08-15T05:58:32.947Z,69.48
2023-08-15T05:59:34.915Z,69.28
2023-08-15T06:00:39.301Z,69.26
2023-08-15T06:01:41.810Z,69.52
2023-08-15T06:02:43.669Z,69.64
2023-08-15T06:03:52.690Z,69.57
2023-08-15T06:04:55.486Z,69.70
2023-08-15T06:05:57.761Z,69.59
2023-08-15T06:06:59.611Z,69.76
2023-08-15T06:08:01.428Z,69.84
2023-08-15T06:09:03.339Z,69.79
2023-08-15T06:10:05.421Z,69.95
2023-08-15T06:11:07.270Z,69.75
2023-08-15T06:12:09.185Z,69.72
2023-08-15T06:13:11.013Z,69.53
2023-08-15T06:14:12.774Z,69.35
2023-08-15T06:15:15.450Z,69.00
2023-08-15T06:16:17.221Z,68.93
2023-08-15T06:17:20.420Z,68.84
2023-08-15T06:18:22.397Z,68.71
2023-08-15T06:19:24.344Z,68.67
2023-08-15T06:20:26.364Z,68.72
2023-08-15T06:21:28.117Z,68.62
2023-08-15T06:22:29.879Z,68.82
2023-08-15T06:23:31.676Z,68.52
2023-08-15T06:24:33.542Z,68.78
2023-08-15T06:25:36.023Z,68.33
2023-08-15T06:26:37.892Z,68.11
2023-08-15T06:27:39.670Z,68.04
2023-08-15T06:28:41.406Z,67.95
2023-08-15T06:29:43.518Z,68.09
2023-08-15T06:30:45.539Z,68.16
2023-08-15T06:31:47.346Z,68.14
2023-08-15T06:32:49.169Z,68.14
2023-08-15T06:33:50.931Z,68.33
2023-08-15T06:34:52.642Z,68.09
2023-08-15T06:35:54.466Z,68.08
2023-08-15T06:36:56.983Z,68.02
2023-08-15T06:37:59.092Z,67.67
2023-08-15T06:39:01.748Z,67.48
2023-08-15T06:40:04.756Z,67.32
2023-08-15T06:41:08.192Z,67.42
2023-08-15T06:42:12.167Z,67.24
2023-08-15T06:43:14.157Z,67.46
2023-08-15T06:44:16.143Z,67.35
2023-08-15T06:45:18.445Z,67.14
2023-08-15T06:46:20.454Z,66.97
2023-08-15T06:47:22.536Z,67.06
2023-08-15T06:48:24.597Z,66.99
2023-08-15T06:49:26.321Z,67.39
2023-08-15T06:50:28.199Z,66.68
2023-08-15T06:51:30.051Z,66.57
2023-08-15T06:52:32.367Z,66.13
2023-08-15T06:53:34.861Z,66.19
2023-08-15T06:54:37.867Z,65.70
2023-08-15T06:55:39.707Z,65.86
2023-08-15T06:56:41.600Z,66.26
2023-08-15T06:57:44.096Z,66.21
2023-08-15T06:58:45.966Z,66.10
2023-08-15T06:59:47.824Z,66.04
2023-08-15T07:00:49.713Z,66.11
2023-08-15T07:01:54.042Z,66.32
2023-08-15T07:02:55.843Z,66.51
2023-08-15T07:03:58.088Z,66.72
2023-08-15T07:04:59.876Z,66.46
2023-08-15T07:06:02.128Z,66.80
2023-08-15T07:07:04.413Z,66.14
2023-08-15T07:08:06.822Z,65.86
2023-08-15T07:09:08.925Z,66.52
2023-08-15T07:10:11.841Z,66.23
2023-08-15T07:11:13.871Z,66.17
2023-08-15T07:12:19.774Z,66.21
2023-08-15T07:13:22.158Z,65.87
2023-08-15T07:14:27.282Z,66.34
2023-08-15T07:15:29.503Z,65.30
2023-08-15T07:16:31.475Z,65.30
2023-08-15T07:17:33.661Z,65.60
2023-08-15T07:18:35.765Z,64.70
2023-08-15T07:19:37.863Z,64.48
2023-08-15T07:20:40.654Z,65.46
2023-08-15T07:21:42.935Z,65.27
2023-08-15T07:22:45.608Z,65.51
2023-08-15T07:23:47.563Z,66.28
2023-08-15T07:24:49.598Z,66.14
2023-08-15T07:25:51.612Z,65.66
2023-08-15T07:26:53.760Z,64.96
2023-08-15T07:27:55.660Z,64.89
2023-08-15T07:28:58.033Z,65.22
2023-08-15T07:30:00.160Z,64.83
2023-08-15T07:31:02.075Z,64.69
2023-08-15T07:32:04.325Z,65.22
2023-08-15T07:33:07.896Z,65.59
2023-08-15T07:34:09.674Z,66.11
2023-08-15T07:35:11.550Z,64.42
2023-08-15T07:36:13.637Z,65.05
2023-08-15T07:37:16.999Z,65.04
2023-08-15T07:38:19.266Z,65.27
2023-08-15T07:39:21.334Z,64.86
2023-08-15T07:40:23.866Z,65.24
2023-08-15T07:41:25.798Z,64.12
2023-08-15T07:42:30.572Z,65.06
2023-08-15T07:43:32.853Z,63.65
2023-08-15T07:44:34.684Z,64.10
2023-08-15T07:45:36.769Z,62.64
2023-08-15T07:46:39.014Z,62.16
2023-08-15T07:47:41.089Z,62.61
2023-08-15T07:48:44.461Z,62.78
2023-08-15T07:49:46.372Z,63.27
2023-08-15T07:50:48.376Z,62.82
2023-08-15T07:51:50.344Z,62.73
2023-08-15T07:52:52.364Z,62.75
2023-08-15T07:53:54.290Z,62.41
2023-08-15T07:54:56.197Z,61.65
2023-08-15T07:55:59.103Z,61.86
2023-08-15T07:57:01.064Z,62.05
2023-08-15T07:58:03.104Z,62.60
2023-08-15T07:59:05.303Z,63.18
2023-08-15T08:00:08.621Z,63.83
2023-08-15T08:01:10.727Z,63.40
2023-08-15T08:02:12.596Z,63.39
2023-08-15T08:03:14.576Z,62.90
2023-08-15T08:04:16.545Z,63.02
2023-08-15T08:05:18.529Z,61.77
2023-08-15T08:06:37.765Z,61.54
2023-08-15T08:07:43.432Z,60.98
2023-08-15T08:08:45.546Z,61.69
2023-08-15T08:09:47.583Z,61.92
2023-08-15T08:10:49.468Z,61.62
2023-08-15T08:11:51.473Z,61.22
2023-08-15T08:12:53.466Z,59.70
2023-08-15T08:13:55.676Z,59.72
2023-08-15T08:15:01.125Z,60.36
2023-08-15T08:16:04.309Z,58.65
2023-08-15T08:17:06.398Z,58.92
2023-08-15T08:18:08.220Z,58.21
2023-08-15T08:19:10.112Z,58.44
2023-08-15T08:20:17.354Z,57.52
2023-08-15T08:21:19.078Z,57.20
2023-08-15T08:22:21.126Z,57.88
2023-08-15T08:23:24.846Z,58.03
2023-08-15T08:24:26.671Z,56.99
2023-08-15T08:25:28.474Z,58.32
2023-08-15T08:26:30.677Z,58.76
2023-08-15T08:27:32.904Z,58.47
2023-08-15T08:28:34.811Z,58.82
2023-08-15T08:29:36.687Z,58.24
2023-08-15T08:30:39.151Z,57.83
2023-08-15T08:31:41.348Z,56.94
2023-08-15T08:32:43.472Z,57.32
2023-08-15T08:33:45.311Z,57.33
2023-08-15T08:34:47.209Z,58.04
2023-08-15T08:35:49.232Z,57.50
2023-08-15T08:36:51.470Z,56.24
2023-08-15T08:37:53.260Z,57.58
2023-08-15T08:38:55.409Z,56.96
2023-08-15T08:39:57.386Z,57.47
2023-08-15T08:40:59.372Z,57.78
2023-08-15T08:42:02.238Z,57.74
2023-08-15T08:43:05.046Z,57.67
2023-08-15T08:44:07.388Z,57.71
2023-08-15T08:45:12.563Z,55.20
2023-08-15T08:46:14.478Z,55.81
2023-08-15T08:47:19.431Z,55.73
2023-08-15T08:48:23.258Z,56.91
2023-08-15T08:49:28.020Z,54.45
2023-08-15T08:50:30.396Z,54.51
2023-08-15T08:51:33.537Z,54.38
2023-08-15T08:52:35.442Z,54.34
2023-08-15T08:53:37.269Z,54.20
2023-08-15T08:54:55.699Z,54.83
2023-08-15T08:55:58.828Z,54.82
2023-08-15T08:57:01.910Z,54.66
2023-08-15T08:58:04.320Z,54.60
2023-08-15T08:59:06.795Z,54.92
2023-08-15T09:00:13.288Z,55.39
2023-08-15T09:01:15.373Z,54.07
2023-08-15T09:02:20.902Z,53.93
2023-08-15T09:03:22.902Z,53.99
2023-08-15T09:04:24.878Z,54.66
2023-08-15T09:05:27.873Z,53.71
2023-08-15T09:06:29.700Z,54.01
2023-08-15T09:07:32.803Z,54.24
2023-08-15T09:08:34.681Z,53.29
2023-08-15T09:09:36.495Z,53.11
2023-08-15T09:10:38.404Z,52.59
2023-08-15T09:11:40.765Z,52.41
2023-08-15T09:12:43.831Z,52.61
2023-08-15T09:13:49.000Z,52.79
2023-08-15T09:14:50.742Z,51.65
2023-08-15T09:15:56.897Z,51.75
2023-08-15T09:16:59.028Z,52.09
2023-08-15T09:18:01.963Z,52.91
2023-08-15T09:19:04.468Z,51.65
2023-08-15T09:20:24.026Z,50.65
2023-08-15T09:21:28.316Z,51.68
2023-08-15T09:22:31.220Z,53.32
2023-08-15T09:23:33.218Z,53.23
2023-08-15T09:24:35.090Z,50.71
2023-08-15T09:25:38.326Z,50.56
2023-08-15T09:26:42.883Z,50.87
2023-08-15T09:27:45.451Z,51.62
2023-08-15T09:28:47.285Z,52.53
2023-08-15T09:29:48.962Z,51.27
2023-08-15T09:30:54.740Z,51.15
2023-08-15T09:31:56.671Z,50.56
2023-08-15T09:32:58.804Z,51.45
2023-08-15T09:34:00.693Z,52.13
2023-08-15T09:35:02.714Z,50.63
2023-08-15T09:36:06.805Z,50.30
2023-08-15T09:37:09.339Z,49.63
2023-08-15T09:38:11.858Z,50.00
2023-08-15T09:39:13.646Z,50.16
2023-08-15T09:40:19.931Z,49.50
2023-08-15T09:41:26.107Z,49.66
2023-08-15T09:42:29.767Z,50.40
2023-08-15T09:43:31.802Z,50.03
2023-08-15T09:44:39.340Z,49.71
2023-08-15T09:45:41.270Z,50.04
2023-08-15T09:46:44.616Z,49.26
2023-08-15T09:47:47.395Z,48.47
2023-08-15T09:48:50.091Z,49.36
2023-08-15T09:49:53.560Z,48.67
2023-08-15T09:50:56.326Z,48.66
2023-08-15T09:52:01.172Z,48.56
2023-08-15T09:53:05.236Z,48.50
2023-08-15T09:54:07.404Z,48.70
2023-08-15T09:55:11.395Z,48.11
2023-08-15T09:56:13.983Z,48.01
2023-08-15T09:57:16.310Z,48.51
2023-08-15T09:58:20.848Z,48.63
2023-08-15T09:59:22.665Z,48.17
2023-08-15T10:00:24.710Z,47.68
2023-08-15T10:01:31.556Z,48.68
2023-08-15T10:02:43.789Z,48.62
2023-08-15T10:03:46.358Z,48.63
2023-08-15T10:04:52.629Z,48.89
2023-08-15T10:05:56.455Z,47.69
2023-08-15T10:06:59.496Z,49.40
2023-08-15T10:08:01.294Z,48.88
2023-08-15T10:09:04.573Z,47.65
2023-08-15T10:10:06.656Z,46.37
2023-08-15T10:11:11.554Z,46.40
2023-08-15T10:12:13.468Z,46.42
2023-08-15T10:13:15.750Z,46.86
2023-08-15T10:14:19.223Z,47.06
2023-08-15T10:15:22.618Z,45.97
2023-08-15T10:16:26.115Z,45.52
2023-08-15T10:17:29.739Z,46.83
2023-08-15T10:18:32.729Z,47.68
2023-08-15T10:19:34.637Z,47.35
2023-08-15T10:20:39.952Z,46.69
2023-08-15T10:21:49.431Z,46.26
2023-08-15T10:22:54.275Z,46.08
2023-08-15T10:24:03.682Z,45.83
2023-08-15T10:25:23.866Z,44.51
2023-08-15T10:26:25.845Z,43.88
2023-08-15T10:27:27.685Z,44.81
2023-08-15T10:28:30.557Z,45.24
2023-08-15T10:29:32.368Z,43.69
2023-08-15T10:30:37.874Z,44.18
2023-08-15T10:31:40.755Z,44.42
2023-08-15T10:32:42.505Z,43.68
2023-08-15T10:33:46.594Z,44.40
2023-08-15T10:34:52.964Z,43.63
2023-08-15T10:35:57.910Z,44.39
2023-08-15T10:37:22.765Z,43.75
2023-08-15T10:38:28.868Z,42.98
2023-08-15T10:39:30.686Z,42.93
2023-08-15T10:40:40.362Z,42.78
2023-08-15T10:41:43.696Z,42.60
2023-08-15T10:43:03.504Z,44.02
2023-08-15T10:44:06.306Z,44.19
2023-08-15T10:45:13.211Z,45.11
2023-08-15T10:46:16.799Z,43.13
2023-08-15T10:47:25.173Z,45.05
2023-08-15T10:49:01.622Z,45.43
2023-08-15T10:50:06.516Z,43.90
2023-08-15T10:51:21.882Z,45.75
2023-08-15T10:52:24.062Z,45.95
2023-08-15T10:53:26.182Z,44.73
2023-08-15T10:54:27.971Z,45.40
2023-08-15T10:55:30.597Z,44.30
2023-08-15T10:56:33.557Z,43.45
2023-08-15T10:57:35.814Z,44.67
2023-08-15T10:58:41.255Z,43.82
2023-08-15T10:59:44.383Z,43.93
2023-08-15T11:00:46.186Z,44.57
2023-08-15T11:01:48.359Z,45.14
2023-08-15T11:02:51.216Z,44.35
2023-08-15T11:03:54.053Z,43.79
2023-08-15T11:04:55.850Z,44.18
2023-08-15T11:06:07.537Z,44.19
2023-08-15T11:07:09.427Z,44.84
2023-08-15T11:08:15.887Z,44.05
2023-08-15T11:09:18.755Z,44.39
2023-08-15T11:10:20.725Z,44.47
2023-08-15T11:11:23.041Z,44.01
2023-08-15T11:12:25.658Z,42.74
2023-08-15T11:13:27.821Z,41.53
2023-08-15T11:14:29.619Z,43.21
2023-08-15T11:15:32.404Z,44.75
2023-08-15T11:16:34.748Z,44.55
2023-08-15T11:17:36.658Z,43.56
2023-08-15T11:18:38.570Z,44.60
2023-08-15T11:19:40.814Z,44.26
2023-08-15T11:20:42.698Z,46.27
2023-08-15T11:21:44.682Z,44.11
2023-08-15T11:22:55.877Z,43.83
2023-08-15T11:24:01.019Z,43.70
2023-08-15T11:25:02.786Z,43.07
2023-08-15T11:26:05.438Z,42.75
2023-08-15T11:27:07.234Z,42.69
2023-08-15T11:28:08.947Z,42.86
2023-08-15T11:29:14.567Z,42.66
2023-08-15T11:30:16.727Z,43.84
2023-08-15T11:31:23.165Z,45.11
2023-08-15T11:32:25.813Z,43.00
2023-08-15T11:33:29.737Z,42.77
2023-08-15T11:34:31.689Z,42.19
2023-08-15T11:35:33.429Z,42.87
2023-08-15T11:36:35.339Z,41.66
2023-08-15T11:37:37.664Z,42.21
2023-08-15T11:38:40.220Z,41.90
2023-08-15T11:39:42.074Z,40.72
2023-08-15T11:40:44.268Z,40.54
2023-08-15T11:41:46.567Z,42.24
2023-08-15T11:42:48.996Z,39.66
2023-08-15T11:43:51.207Z,41.43
2023-08-15T11:45:09.231Z,42.47
2023-08-15T11:46:12.041Z,41.31
2023-08-15T11:47:19.939Z,41.46
2023-08-15T11:48:22.369Z,42.23
2023-08-15T11:49:24.691Z,39.87
2023-08-15T11:50:41.935Z,39.07
2023-08-15T11:51:46.245Z,39.83
2023-08-15T11:52:48.136Z,39.63
2023-08-15T11:53:53.687Z,41.33
2023-08-15T11:54:55.558Z,40.13
2023-08-15T11:55:57.271Z,42.80
2023-08-15T11:56:59.605Z,42.26
2023-08-15T11:58:01.392Z,42.72
2023-08-15T11:59:05.370Z,41.75
2023-08-15T12:00:07.472Z,41.04
2023-08-15T12:01:13.167Z,41.87
2023-08-15T12:02:15.169Z,42.99
2023-08-15T12:03:17.288Z,41.77
2023-08-15T12:04:19.469Z,40.89
2023-08-15T12:05:21.340Z,41.11
2023-08-15T12:06:23.089Z,41.66
2023-08-15T12:07:25.130Z,43.34
2023-08-15T12:08:27.643Z,41.94
2023-08-15T12:09:31.082Z,41.45
2023-08-15T12:10:33.208Z,40.73
2023-08-15T12:11:36.023Z,40.89
2023-08-15T12:12:39.150Z,41.14
2023-08-15T12:13:41.681Z,42.27
2023-08-15T12:14:50.791Z,41.20
2023-08-15T12:15:53.597Z,39.89
2023-08-15T12:16:55.492Z,42.33
2023-08-15T12:17:57.321Z,42.29
2023-08-15T12:18:59.173Z,41.87
2023-08-15T12:20:01.765Z,41.56
2023-08-15T12:21:06.054Z,41.87
2023-08-15T12:22:07.982Z,40.99
2023-08-15T12:23:15.382Z,40.23
2023-08-15T12:24:21.062Z,40.55
2023-08-15T12:25:23.157Z,41.42
2023-08-15T12:26:25.093Z,41.02
2023-08-15T12:27:27.259Z,41.19
2023-08-15T12:28:29.625Z,39.80
2023-08-15T12:30:13.293Z,40.20
2023-08-15T12:30:53.656Z,40.97
2023-08-15T12:31:55.464Z,39.26
2023-08-15T12:32:57.480Z,38.71
2023-08-15T12:33:59.351Z,39.43
2023-08-15T12:35:01.153Z,39.85
2023-08-15T12:36:03.374Z,40.37
2023-08-15T12:37:05.144Z,39.81
2023-08-15T12:38:06.947Z,39.77
2023-08-15T12:39:09.498Z,38.15
2023-08-15T12:40:18.317Z,38.71
2023-08-15T12:41:24.023Z,37.68
2023-08-15T12:42:26.343Z,38.33
2023-08-15T12:43:28.254Z,40.04
2023-08-15T12:44:30.224Z,39.83
2023-08-15T12:45:32.051Z,39.82
2023-08-15T12:46:33.881Z,37.27
2023-08-15T12:47:37.420Z,38.59
2023-08-15T12:48:39.331Z,39.61
2023-08-15T12:49:41.260Z,38.62
2023-08-15T12:50:43.049Z,38.57
2023-08-15T12:51:44.882Z,39.07
2023-08-15T12:52:46.845Z,38.71
2023-08-15T12:53:48.790Z,36.42
2023-08-15T12:54:50.584Z,38.26
2023-08-15T12:55:52.766Z,38.70
2023-08-15T12:56:54.748Z,38.91
2023-08-15T12:57:56.676Z,38.95
2023-08-15T12:58:58.840Z,38.86
2023-08-15T13:00:00.726Z,39.13
2023-08-15T13:01:02.936Z,38.29
2023-08-15T13:02:05.166Z,37.15
2023-08-15T13:03:07.020Z,36.42
2023-08-15T13:04:13.598Z,37.69
2023-08-15T13:05:15.540Z,36.67
2023-08-15T13:06:17.581Z,36.80
2023-08-15T13:07:19.379Z,37.00
2023-08-15T13:08:22.703Z,37.47
2023-08-15T13:09:24.883Z,37.57
2023-08-15T13:10:26.917Z,35.75
2023-08-15T13:11:29.018Z,36.60
2023-08-15T13:12:30.909Z,38.48
2023-08-15T13:13:32.812Z,37.77
2023-08-15T13:14:34.807Z,37.46
2023-08-15T13:15:36.601Z,37.45
2023-08-15T13:16:39.196Z,36.99
2023-08-15T13:17:41.950Z,36.98
2023-08-15T13:18:45.568Z,37.55
2023-08-15T13:19:47.362Z,38.14
2023-08-15T13:20:49.256Z,37.76
2023-08-15T13:21:51.160Z,37.74
2023-08-15T13:22:55.063Z,38.49
2023-08-15T13:23:57.551Z,36.67
2023-08-15T13:24:59.738Z,35.46
2023-08-15T13:26:01.904Z,37.15
2023-08-15T13:27:03.767Z,38.12
2023-08-15T13:28:06.076Z,36.86
2023-08-15T13:29:08.323Z,37.82
2023-08-15T13:30:10.549Z,37.52
2023-08-15T13:31:12.339Z,36.00
2023-08-15T13:32:14.460Z,35.79
2023-08-15T13:33:17.379Z,36.45
2023-08-15T13:34:21.522Z,37.39